RPUX weather

Plaridel Airport
Plaridel, Bulacan Province, Philippines

Public forecast

Using degrees Celsius for public forecast. Weather courtesy of forecast.io.

METAR (pilot weather report)

Closest report is Diosdado Macapagal International Airport, 24.5 nm (45.5 km) NW. Retrieved 2019/09/23 12:00 UTC (5 minutes ago):

RPLC 231200Z 36060KT 4000 HZ SCT020 OVC100 29/25 Q1015 RERA RMK A2997

TAF (pilot weather forecast)

Closest forecast is Diosdado Macapagal International Airport, 24.5 nm (45.5 km) NW. Retrieved 2019/09/23 12:07 UTC (0 seconds ago):

TAF RPLC 231100Z 2312/2418 35006KT 8000 SCT020 BKN300 TX31/2406Z TN24/2322Z TEMPO 2312/2318 11008KT 6000 -TSRA FEW015CB SCT020 BKN100